sensor_id;sensor_type;location;lat;lon;timestamp;P1;durP1;ratioP1;P2;durP2;ratioP2
13114;SDS011;6623;52.120;8.660;2022-08-03T00:01:57;9.80;;;4.27;;
13114;SDS011;6623;52.120;8.660;2022-08-03T00:04:24;6.27;;;4.20;;
13114;SDS011;6623;52.120;8.660;2022-08-03T00:06:52;6.97;;;4.50;;
13114;SDS011;6623;52.120;8.660;2022-08-03T00:09:21;9.20;;;4.13;;
13114;SDS011;6623;52.120;8.660;2022-08-03T00:11:47;14.63;;;4.53;;
13114;SDS011;6623;52.120;8.660;2022-08-03T00:14:19;7.20;;;4.30;;
13114;SDS011;6623;52.120;8.660;2022-08-03T00:16:45;5.10;;;3.70;;
13114;SDS011;6623;52.120;8.660;2022-08-03T00:19:11;5.73;;;4.60;;
13114;SDS011;6623;52.120;8.660;2022-08-03T00:21:37;6.70;;;4.60;;
13114;SDS011;6623;52.120;8.660;2022-08-03T00:24:06;6.97;;;4.00;;
13114;SDS011;6623;52.120;8.660;2022-08-03T00:26:32;5.00;;;4.23;;
13114;SDS011;6623;52.120;8.660;2022-08-03T00:28:58;6.43;;;4.17;;
13114;SDS011;6623;52.120;8.660;2022-08-03T00:31:24;5.30;;;4.00;;
13114;SDS011;6623;52.120;8.660;2022-08-03T00:33:50;8.20;;;4.83;;
13114;SDS011;6623;52.120;8.660;2022-08-03T00:36:15;5.50;;;4.10;;
13114;SDS011;6623;52.120;8.660;2022-08-03T00:38:41;7.00;;;4.23;;
13114;SDS011;6623;52.120;8.660;2022-08-03T00:41:07;5.30;;;4.37;;
13114;SDS011;6623;52.120;8.660;2022-08-03T00:43:33;6.13;;;4.73;;
13114;SDS011;6623;52.120;8.660;2022-08-03T00:45:59;7.53;;;4.53;;
13114;SDS011;6623;52.120;8.660;2022-08-03T00:48:25;11.13;;;5.20;;
13114;SDS011;6623;52.120;8.660;2022-08-03T00:50:51;5.00;;;4.50;;
13114;SDS011;6623;52.120;8.660;2022-08-03T00:53:18;6.93;;;4.87;;
13114;SDS011;6623;52.120;8.660;2022-08-03T00:55:44;5.37;;;4.73;;
13114;SDS011;6623;52.120;8.660;2022-08-03T00:58:09;6.93;;;4.67;;
13114;SDS011;6623;52.120;8.660;2022-08-03T01:00:36;5.20;;;4.70;;
13114;SDS011;6623;52.120;8.660;2022-08-03T01:03:03;9.83;;;4.80;;
13114;SDS011;6623;52.120;8.660;2022-08-03T01:05:29;5.20;;;4.20;;
13114;SDS011;6623;52.120;8.660;2022-08-03T01:08:17;5.87;;;4.33;;
13114;SDS011;6623;52.120;8.660;2022-08-03T01:16:08;6.73;;;5.07;;
13114;SDS011;6623;52.120;8.660;2022-08-03T01:21:05;8.70;;;4.67;;
13114;SDS011;6623;52.120;8.660;2022-08-03T01:23:53;4.97;;;4.57;;
13114;SDS011;6623;52.120;8.660;2022-08-03T01:31:14;8.53;;;4.60;;
13114;SDS011;6623;52.120;8.660;2022-08-03T01:33:42;5.80;;;4.67;;
13114;SDS011;6623;52.120;8.660;2022-08-03T01:36:12;5.47;;;4.43;;
13114;SDS011;6623;52.120;8.660;2022-08-03T01:38:43;5.40;;;4.30;;
13114;SDS011;6623;52.120;8.660;2022-08-03T01:41:12;6.50;;;4.50;;
13114;SDS011;6623;52.120;8.660;2022-08-03T01:43:41;6.43;;;4.80;;
13114;SDS011;6623;52.120;8.660;2022-08-03T01:46:08;6.10;;;4.27;;
13114;SDS011;6623;52.120;8.660;2022-08-03T01:48:38;5.03;;;4.20;;
13114;SDS011;6623;52.120;8.660;2022-08-03T01:51:07;5.40;;;4.60;;
13114;SDS011;6623;52.120;8.660;2022-08-03T01:53:33;9.37;;;4.90;;
13114;SDS011;6623;52.120;8.660;2022-08-03T01:56:00;7.10;;;4.63;;
13114;SDS011;6623;52.120;8.660;2022-08-03T01:58:27;5.20;;;4.70;;
13114;SDS011;6623;52.120;8.660;2022-08-03T02:00:54;5.20;;;4.70;;
13114;SDS011;6623;52.120;8.660;2022-08-03T02:03:23;4.87;;;4.37;;
13114;SDS011;6623;52.120;8.660;2022-08-03T02:05:49;7.23;;;4.70;;
13114;SDS011;6623;52.120;8.660;2022-08-03T02:08:17;6.03;;;4.77;;
13114;SDS011;6623;52.120;8.660;2022-08-03T02:10:43;7.33;;;4.77;;
13114;SDS011;6623;52.120;8.660;2022-08-03T02:13:11;9.10;;;4.97;;
13114;SDS011;6623;52.120;8.660;2022-08-03T02:15:37;10.23;;;4.87;;
13114;SDS011;6623;52.120;8.660;2022-08-03T02:18:06;7.27;;;4.73;;
13114;SDS011;6623;52.120;8.660;2022-08-03T02:20:33;6.07;;;4.80;;
13114;SDS011;6623;52.120;8.660;2022-08-03T02:23:01;6.10;;;4.77;;
13114;SDS011;6623;52.120;8.660;2022-08-03T02:25:27;5.07;;;4.37;;
13114;SDS011;6623;52.120;8.660;2022-08-03T02:27:55;11.97;;;4.73;;
13114;SDS011;6623;52.120;8.660;2022-08-03T02:30:24;6.53;;;4.80;;
13114;SDS011;6623;52.120;8.660;2022-08-03T02:32:53;6.20;;;4.37;;
13114;SDS011;6623;52.120;8.660;2022-08-03T02:35:20;9.70;;;4.80;;
13114;SDS011;6623;52.120;8.660;2022-08-03T02:37:47;7.43;;;4.43;;
13114;SDS011;6623;52.120;8.660;2022-08-03T02:40:14;5.17;;;4.60;;
13114;SDS011;6623;52.120;8.660;2022-08-03T02:42:42;4.90;;;4.40;;
13114;SDS011;6623;52.120;8.660;2022-08-03T02:45:10;5.90;;;4.73;;
13114;SDS011;6623;52.120;8.660;2022-08-03T02:47:38;8.40;;;4.70;;
13114;SDS011;6623;52.120;8.660;2022-08-03T02:50:05;9.27;;;4.90;;
13114;SDS011;6623;52.120;8.660;2022-08-03T02:52:31;5.67;;;4.30;;
13114;SDS011;6623;52.120;8.660;2022-08-03T02:54:59;6.63;;;4.33;;
13114;SDS011;6623;52.120;8.660;2022-08-03T02:57:25;7.37;;;4.10;;
13114;SDS011;6623;52.120;8.660;2022-08-03T02:59:52;4.97;;;4.20;;
13114;SDS011;6623;52.120;8.660;2022-08-03T03:02:19;7.03;;;4.20;;
13114;SDS011;6623;52.120;8.660;2022-08-03T03:04:45;6.67;;;4.47;;
13114;SDS011;6623;52.120;8.660;2022-08-03T03:07:12;9.33;;;4.10;;
13114;SDS011;6623;52.120;8.660;2022-08-03T03:09:38;5.93;;;4.60;;
13114;SDS011;6623;52.120;8.660;2022-08-03T03:12:06;4.93;;;4.43;;
13114;SDS011;6623;52.120;8.660;2022-08-03T03:14:33;5.03;;;4.57;;
13114;SDS011;6623;52.120;8.660;2022-08-03T03:16:59;7.10;;;4.90;;
13114;SDS011;6623;52.120;8.660;2022-08-03T03:19:26;17.73;;;5.00;;
13114;SDS011;6623;52.120;8.660;2022-08-03T03:21:52;7.47;;;4.30;;
13114;SDS011;6623;52.120;8.660;2022-08-03T03:24:21;5.33;;;4.30;;
13114;SDS011;6623;52.120;8.660;2022-08-03T03:26:47;4.70;;;4.00;;
13114;SDS011;6623;52.120;8.660;2022-08-03T03:29:17;5.80;;;4.00;;
13114;SDS011;6623;52.120;8.660;2022-08-03T03:31:43;7.53;;;4.20;;
13114;SDS011;6623;52.120;8.660;2022-08-03T03:34:09;7.03;;;4.47;;
13114;SDS011;6623;52.120;8.660;2022-08-03T03:36:35;5.30;;;4.20;;
13114;SDS011;6623;52.120;8.660;2022-08-03T03:39:01;5.93;;;4.53;;
13114;SDS011;6623;52.120;8.660;2022-08-03T03:41:27;4.70;;;3.90;;
13114;SDS011;6623;52.120;8.660;2022-08-03T03:43:53;6.03;;;4.13;;
13114;SDS011;6623;52.120;8.660;2022-08-03T03:46:22;4.50;;;3.80;;
13114;SDS011;6623;52.120;8.660;2022-08-03T03:48:48;6.17;;;4.10;;
13114;SDS011;6623;52.120;8.660;2022-08-03T03:51:14;6.30;;;4.27;;
13114;SDS011;6623;52.120;8.660;2022-08-03T03:53:52;4.13;;;3.70;;
13114;SDS011;6623;52.120;8.660;2022-08-03T03:56:18;6.73;;;4.40;;
13114;SDS011;6623;52.120;8.660;2022-08-03T03:58:44;5.77;;;4.37;;
13114;SDS011;6623;52.120;8.660;2022-08-03T04:01:11;4.20;;;3.80;;
13114;SDS011;6623;52.120;8.660;2022-08-03T04:03:37;6.27;;;4.10;;
13114;SDS011;6623;52.120;8.660;2022-08-03T04:06:03;4.50;;;3.60;;
13114;SDS011;6623;52.120;8.660;2022-08-03T04:08:48;6.00;;;4.30;;
13114;SDS011;6623;52.120;8.660;2022-08-03T04:11:34;6.57;;;3.80;;
13114;SDS011;6623;52.120;8.660;2022-08-03T04:14:18;5.60;;;4.10;;
13114;SDS011;6623;52.120;8.660;2022-08-03T04:16:47;5.83;;;3.60;;
13114;SDS011;6623;52.120;8.660;2022-08-03T04:19:16;5.33;;;4.13;;
13114;SDS011;6623;52.120;8.660;2022-08-03T04:21:43;5.27;;;3.70;;
13114;SDS011;6623;52.120;8.660;2022-08-03T04:24:11;6.70;;;3.93;;
13114;SDS011;6623;52.120;8.660;2022-08-03T04:26:39;5.57;;;3.90;;
13114;SDS011;6623;52.120;8.660;2022-08-03T04:29:05;3.93;;;3.57;;
13114;SDS011;6623;52.120;8.660;2022-08-03T04:31:31;5.90;;;3.97;;
13114;SDS011;6623;52.120;8.660;2022-08-03T04:33:58;4.27;;;3.67;;
13114;SDS011;6623;52.120;8.660;2022-08-03T04:36:28;4.30;;;3.73;;
13114;SDS011;6623;52.120;8.660;2022-08-03T04:41:23;7.37;;;4.00;;
13114;SDS011;6623;52.120;8.660;2022-08-03T04:43:53;6.70;;;3.80;;
13114;SDS011;6623;52.120;8.660;2022-08-03T04:46:30;4.20;;;3.80;;
13114;SDS011;6623;52.120;8.660;2022-08-03T04:48:57;6.03;;;3.90;;
13114;SDS011;6623;52.120;8.660;2022-08-03T04:51:23;4.70;;;3.87;;
13114;SDS011;6623;52.120;8.660;2022-08-03T04:53:50;4.00;;;3.60;;
13114;SDS011;6623;52.120;8.660;2022-08-03T04:56:16;4.27;;;3.70;;
13114;SDS011;6623;52.120;8.660;2022-08-03T04:58:45;5.03;;;3.50;;
13114;SDS011;6623;52.120;8.660;2022-08-03T05:01:11;4.50;;;3.77;;
13114;SDS011;6623;52.120;8.660;2022-08-03T05:03:37;4.23;;;3.83;;
13114;SDS011;6623;52.120;8.660;2022-08-03T05:06:03;6.57;;;4.00;;
13114;SDS011;6623;52.120;8.660;2022-08-03T05:08:29;3.70;;;3.30;;
13114;SDS011;6623;52.120;8.660;2022-08-03T05:10:55;7.50;;;3.73;;
13114;SDS011;6623;52.120;8.660;2022-08-03T05:13:22;6.93;;;3.60;;
13114;SDS011;6623;52.120;8.660;2022-08-03T05:15:48;3.90;;;3.50;;
13114;SDS011;6623;52.120;8.660;2022-08-03T05:18:14;5.00;;;3.60;;
13114;SDS011;6623;52.120;8.660;2022-08-03T05:20:40;3.77;;;3.23;;
13114;SDS011;6623;52.120;8.660;2022-08-03T05:23:06;4.27;;;3.00;;
13114;SDS011;6623;52.120;8.660;2022-08-03T05:25:32;3.50;;;3.20;;
13114;SDS011;6623;52.120;8.660;2022-08-03T05:27:58;4.23;;;3.30;;
13114;SDS011;6623;52.120;8.660;2022-08-03T05:30:24;5.20;;;3.37;;
13114;SDS011;6623;52.120;8.660;2022-08-03T05:32:50;4.10;;;3.17;;
13114;SDS011;6623;52.120;8.660;2022-08-03T05:35:17;4.40;;;2.83;;
13114;SDS011;6623;52.120;8.660;2022-08-03T05:37:43;5.03;;;3.10;;
13114;SDS011;6623;52.120;8.660;2022-08-03T05:40:09;5.47;;;3.77;;
13114;SDS011;6623;52.120;8.660;2022-08-03T05:42:36;3.30;;;3.00;;
13114;SDS011;6623;52.120;8.660;2022-08-03T05:45:05;4.33;;;2.90;;
13114;SDS011;6623;52.120;8.660;2022-08-03T05:47:42;3.10;;;2.80;;
13114;SDS011;6623;52.120;8.660;2022-08-03T05:50:09;6.77;;;2.73;;
13114;SDS011;6623;52.120;8.660;2022-08-03T05:52:35;3.20;;;2.90;;
13114;SDS011;6623;52.120;8.660;2022-08-03T05:55:02;5.40;;;3.17;;
13114;SDS011;6623;52.120;8.660;2022-08-03T05:57:28;4.40;;;2.77;;
13114;SDS011;6623;52.120;8.660;2022-08-03T05:59:53;6.23;;;2.83;;
13114;SDS011;6623;52.120;8.660;2022-08-03T06:02:19;3.97;;;2.70;;
13114;SDS011;6623;52.120;8.660;2022-08-03T06:04:45;5.43;;;3.10;;
13114;SDS011;6623;52.120;8.660;2022-08-03T06:07:17;9.00;;;3.00;;
13114;SDS011;6623;52.120;8.660;2022-08-03T06:09:43;3.87;;;2.60;;
13114;SDS011;6623;52.120;8.660;2022-08-03T06:12:09;8.93;;;2.60;;
13114;SDS011;6623;52.120;8.660;2022-08-03T06:14:35;5.03;;;2.53;;
13114;SDS011;6623;52.120;8.660;2022-08-03T06:17:01;2.87;;;2.50;;
13114;SDS011;6623;52.120;8.660;2022-08-03T06:19:27;3.70;;;2.77;;
13114;SDS011;6623;52.120;8.660;2022-08-03T06:21:53;3.23;;;2.50;;
13114;SDS011;6623;52.120;8.660;2022-08-03T06:24:22;6.80;;;2.87;;
13114;SDS011;6623;52.120;8.660;2022-08-03T06:26:51;4.17;;;2.87;;
13114;SDS011;6623;52.120;8.660;2022-08-03T06:29:17;3.70;;;2.37;;
13114;SDS011;6623;52.120;8.660;2022-08-03T06:31:45;5.33;;;2.60;;
13114;SDS011;6623;52.120;8.660;2022-08-03T06:34:11;7.03;;;2.53;;
13114;SDS011;6623;52.120;8.660;2022-08-03T06:36:37;4.00;;;2.20;;
13114;SDS011;6623;52.120;8.660;2022-08-03T06:39:04;6.13;;;2.53;;
13114;SDS011;6623;52.120;8.660;2022-08-03T06:41:32;4.67;;;2.77;;
13114;SDS011;6623;52.120;8.660;2022-08-03T06:43:58;3.77;;;2.40;;
13114;SDS011;6623;52.120;8.660;2022-08-03T06:46:24;6.37;;;2.70;;
13114;SDS011;6623;52.120;8.660;2022-08-03T06:48:50;3.00;;;2.47;;
13114;SDS011;6623;52.120;8.660;2022-08-03T06:51:16;4.80;;;2.73;;
13114;SDS011;6623;52.120;8.660;2022-08-03T06:53:42;2.43;;;2.23;;
13114;SDS011;6623;52.120;8.660;2022-08-03T06:56:08;4.07;;;2.53;;
13114;SDS011;6623;52.120;8.660;2022-08-03T06:58:35;3.77;;;2.40;;
13114;SDS011;6623;52.120;8.660;2022-08-03T07:01:01;3.73;;;2.20;;
13114;SDS011;6623;52.120;8.660;2022-08-03T07:03:27;4.50;;;2.37;;
13114;SDS011;6623;52.120;8.660;2022-08-03T07:05:53;4.40;;;2.40;;
13114;SDS011;6623;52.120;8.660;2022-08-03T07:08:19;3.03;;;2.20;;
13114;SDS011;6623;52.120;8.660;2022-08-03T07:10:45;4.23;;;2.40;;
13114;SDS011;6623;52.120;8.660;2022-08-03T07:13:11;3.97;;;1.90;;
13114;SDS011;6623;52.120;8.660;2022-08-03T07:15:37;3.03;;;2.17;;
13114;SDS011;6623;52.120;8.660;2022-08-03T07:18:04;5.73;;;2.03;;
13114;SDS011;6623;52.120;8.660;2022-08-03T07:20:30;4.67;;;1.80;;
13114;SDS011;6623;52.120;8.660;2022-08-03T07:22:57;2.57;;;2.13;;
13114;SDS011;6623;52.120;8.660;2022-08-03T07:25:23;2.87;;;1.93;;
13114;SDS011;6623;52.120;8.660;2022-08-03T07:27:49;4.00;;;2.13;;
13114;SDS011;6623;52.120;8.660;2022-08-03T07:30:18;4.57;;;1.70;;
13114;SDS011;6623;52.120;8.660;2022-08-03T07:32:44;3.17;;;1.80;;
13114;SDS011;6623;52.120;8.660;2022-08-03T07:35:10;2.50;;;1.83;;
13114;SDS011;6623;52.120;8.660;2022-08-03T07:37:36;4.50;;;2.13;;
13114;SDS011;6623;52.120;8.660;2022-08-03T07:40:03;4.13;;;1.57;;
13114;SDS011;6623;52.120;8.660;2022-08-03T07:42:29;6.47;;;2.07;;
13114;SDS011;6623;52.120;8.660;2022-08-03T07:44:55;2.87;;;1.90;;
13114;SDS011;6623;52.120;8.660;2022-08-03T07:47:22;5.97;;;1.90;;
13114;SDS011;6623;52.120;8.660;2022-08-03T07:49:48;3.03;;;1.90;;
13114;SDS011;6623;52.120;8.660;2022-08-03T07:52:14;4.00;;;2.00;;
13114;SDS011;6623;52.120;8.660;2022-08-03T07:54:58;3.67;;;2.00;;
13114;SDS011;6623;52.120;8.660;2022-08-03T07:57:24;5.27;;;2.03;;
13114;SDS011;6623;52.120;8.660;2022-08-03T07:59:54;3.70;;;1.97;;
13114;SDS011;6623;52.120;8.660;2022-08-03T08:02:20;3.53;;;1.77;;
13114;SDS011;6623;52.120;8.660;2022-08-03T08:04:45;3.63;;;1.80;;
13114;SDS011;6623;52.120;8.660;2022-08-03T08:07:11;2.20;;;1.67;;
13114;SDS011;6623;52.120;8.660;2022-08-03T08:09:37;5.70;;;1.90;;
13114;SDS011;6623;52.120;8.660;2022-08-03T08:12:04;3.03;;;1.70;;
13114;SDS011;6623;52.120;8.660;2022-08-03T08:14:31;3.90;;;1.73;;
13114;SDS011;6623;52.120;8.660;2022-08-03T08:16:58;3.80;;;1.97;;
13114;SDS011;6623;52.120;8.660;2022-08-03T08:19:24;3.43;;;1.90;;
13114;SDS011;6623;52.120;8.660;2022-08-03T08:21:49;4.13;;;1.30;;
13114;SDS011;6623;52.120;8.660;2022-08-03T08:24:15;7.33;;;1.77;;
13114;SDS011;6623;52.120;8.660;2022-08-03T08:26:41;3.50;;;1.37;;
13114;SDS011;6623;52.120;8.660;2022-08-03T08:29:07;2.27;;;1.47;;
13114;SDS011;6623;52.120;8.660;2022-08-03T08:31:33;3.20;;;1.30;;
13114;SDS011;6623;52.120;8.660;2022-08-03T08:33:59;7.40;;;1.50;;
13114;SDS011;6623;52.120;8.660;2022-08-03T08:36:29;2.90;;;1.60;;
13114;SDS011;6623;52.120;8.660;2022-08-03T08:38:55;2.93;;;1.53;;
13114;SDS011;6623;52.120;8.660;2022-08-03T08:41:21;7.07;;;1.67;;
13114;SDS011;6623;52.120;8.660;2022-08-03T08:43:47;4.90;;;1.50;;
13114;SDS011;6623;52.120;8.660;2022-08-03T08:46:13;11.03;;;1.40;;
13114;SDS011;6623;52.120;8.660;2022-08-03T08:48:41;2.37;;;1.10;;
13114;SDS011;6623;52.120;8.660;2022-08-03T08:51:08;3.00;;;1.17;;
13114;SDS011;6623;52.120;8.660;2022-08-03T08:53:40;5.97;;;1.87;;
13114;SDS011;6623;52.120;8.660;2022-08-03T08:56:06;2.07;;;1.40;;
13114;SDS011;6623;52.120;8.660;2022-08-03T08:58:37;3.20;;;1.20;;
13114;SDS011;6623;52.120;8.660;2022-08-03T09:01:03;3.33;;;1.60;;
13114;SDS011;6623;52.120;8.660;2022-08-03T09:03:31;2.80;;;1.15;;
13114;SDS011;6623;52.120;8.660;2022-08-03T09:06:00;3.28;;;1.48;;
13114;SDS011;6623;52.120;8.660;2022-08-03T09:08:30;4.20;;;1.53;;
13114;SDS011;6623;52.120;8.660;2022-08-03T09:10:57;3.60;;;1.45;;
13114;SDS011;6623;52.120;8.660;2022-08-03T09:13:23;3.60;;;1.48;;
13114;SDS011;6623;52.120;8.660;2022-08-03T09:16:03;3.85;;;1.50;;
13114;SDS011;6623;52.120;8.660;2022-08-03T09:18:33;2.95;;;1.35;;
13114;SDS011;6623;52.120;8.660;2022-08-03T09:23:46;6.53;;;1.67;;
13114;SDS011;6623;52.120;8.660;2022-08-03T09:26:18;2.95;;;1.50;;
13114;SDS011;6623;52.120;8.660;2022-08-03T09:28:45;6.80;;;1.67;;
13114;SDS011;6623;52.120;8.660;2022-08-03T09:31:11;4.45;;;1.75;;
13114;SDS011;6623;52.120;8.660;2022-08-03T09:33:46;6.60;;;1.65;;
13114;SDS011;6623;52.120;8.660;2022-08-03T09:39:01;4.75;;;1.65;;
13114;SDS011;6623;52.120;8.660;2022-08-03T09:41:30;5.18;;;1.80;;
13114;SDS011;6623;52.120;8.660;2022-08-03T09:43:56;6.32;;;1.80;;
13114;SDS011;6623;52.120;8.660;2022-08-03T09:46:22;5.45;;;2.05;;
13114;SDS011;6623;52.120;8.660;2022-08-03T09:48:48;7.60;;;1.83;;
13114;SDS011;6623;52.120;8.660;2022-08-03T09:51:14;3.47;;;1.65;;
13114;SDS011;6623;52.120;8.660;2022-08-03T09:53:45;6.28;;;1.70;;
13114;SDS011;6623;52.120;8.660;2022-08-03T09:56:12;4.65;;;1.85;;
13114;SDS011;6623;52.120;8.660;2022-08-03T09:58:45;7.47;;;1.95;;
13114;SDS011;6623;52.120;8.660;2022-08-03T10:01:11;4.68;;;1.77;;
13114;SDS011;6623;52.120;8.660;2022-08-03T10:03:38;3.90;;;1.67;;
13114;SDS011;6623;52.120;8.660;2022-08-03T10:06:14;3.65;;;1.88;;
13114;SDS011;6623;52.120;8.660;2022-08-03T10:08:40;5.05;;;1.88;;
13114;SDS011;6623;52.120;8.660;2022-08-03T10:11:06;2.33;;;1.73;;
13114;SDS011;6623;52.120;8.660;2022-08-03T10:13:35;6.32;;;1.95;;
13114;SDS011;6623;52.120;8.660;2022-08-03T10:16:05;3.70;;;1.75;;
13114;SDS011;6623;52.120;8.660;2022-08-03T10:18:31;6.20;;;1.42;;
13114;SDS011;6623;52.120;8.660;2022-08-03T10:20:58;6.85;;;1.60;;
13114;SDS011;6623;52.120;8.660;2022-08-03T10:23:27;3.95;;;1.80;;
13114;SDS011;6623;52.120;8.660;2022-08-03T10:25:53;3.53;;;1.83;;
13114;SDS011;6623;52.120;8.660;2022-08-03T10:28:25;5.40;;;1.40;;
13114;SDS011;6623;52.120;8.660;2022-08-03T10:30:56;7.43;;;1.63;;
13114;SDS011;6623;52.120;8.660;2022-08-03T10:33:29;7.60;;;1.75;;
13114;SDS011;6623;52.120;8.660;2022-08-03T10:35:56;7.07;;;1.60;;
13114;SDS011;6623;52.120;8.660;2022-08-03T10:38:37;3.92;;;1.42;;
13114;SDS011;6623;52.120;8.660;2022-08-03T10:41:05;6.40;;;1.73;;
13114;SDS011;6623;52.120;8.660;2022-08-03T10:46:22;3.78;;;1.55;;
13114;SDS011;6623;52.120;8.660;2022-08-03T10:48:51;5.07;;;1.83;;
13114;SDS011;6623;52.120;8.660;2022-08-03T10:51:18;2.33;;;1.50;;
13114;SDS011;6623;52.120;8.660;2022-08-03T10:53:44;7.43;;;1.73;;
13114;SDS011;6623;52.120;8.660;2022-08-03T10:59:15;3.65;;;1.40;;
13114;SDS011;6623;52.120;8.660;2022-08-03T11:01:51;6.35;;;1.67;;
13114;SDS011;6623;52.120;8.660;2022-08-03T11:04:18;3.88;;;1.65;;
13114;SDS011;6623;52.120;8.660;2022-08-03T11:06:45;2.03;;;1.50;;
13114;SDS011;6623;52.120;8.660;2022-08-03T11:11:38;3.78;;;1.27;;
13114;SDS011;6623;52.120;8.660;2022-08-03T11:14:06;4.85;;;1.40;;
13114;SDS011;6623;52.120;8.660;2022-08-03T11:16:42;4.57;;;1.17;;
13114;SDS011;6623;52.120;8.660;2022-08-03T11:19:19;2.70;;;1.23;;
13114;SDS011;6623;52.120;8.660;2022-08-03T11:21:52;4.68;;;1.42;;
13114;SDS011;6623;52.120;8.660;2022-08-03T11:35:16;5.45;;;1.00;;
13114;SDS011;6623;52.120;8.660;2022-08-03T11:43:06;2.70;;;1.30;;
13114;SDS011;6623;52.120;8.660;2022-08-03T11:45:36;3.42;;;1.42;;
13114;SDS011;6623;52.120;8.660;2022-08-03T11:48:12;3.75;;;1.20;;
13114;SDS011;6623;52.120;8.660;2022-08-03T11:50:39;4.25;;;1.75;;
13114;SDS011;6623;52.120;8.660;2022-08-03T11:53:16;3.15;;;1.35;;
13114;SDS011;6623;52.120;8.660;2022-08-03T11:55:44;3.80;;;1.30;;
13114;SDS011;6623;52.120;8.660;2022-08-03T11:58:19;4.72;;;1.30;;
13114;SDS011;6623;52.120;8.660;2022-08-03T12:00:46;4.22;;;1.63;;
13114;SDS011;6623;52.120;8.660;2022-08-03T12:03:13;5.18;;;1.35;;
13114;SDS011;6623;52.120;8.660;2022-08-03T12:08:06;4.00;;;1.40;;
13114;SDS011;6623;52.120;8.660;2022-08-03T12:10:32;4.40;;;1.45;;
13114;SDS011;6623;52.120;8.660;2022-08-03T12:12:59;3.40;;;1.63;;
13114;SDS011;6623;52.120;8.660;2022-08-03T12:15:29;3.72;;;1.45;;
13114;SDS011;6623;52.120;8.660;2022-08-03T12:17:57;4.38;;;1.60;;
13114;SDS011;6623;52.120;8.660;2022-08-03T12:20:27;2.78;;;1.35;;
13114;SDS011;6623;52.120;8.660;2022-08-03T12:22:53;3.75;;;1.60;;
13114;SDS011;6623;52.120;8.660;2022-08-03T12:25:21;2.58;;;1.60;;
13114;SDS011;6623;52.120;8.660;2022-08-03T12:27:47;3.08;;;1.48;;
13114;SDS011;6623;52.120;8.660;2022-08-03T12:30:13;3.63;;;1.30;;
13114;SDS011;6623;52.120;8.660;2022-08-03T12:32:41;3.60;;;1.48;;
13114;SDS011;6623;52.120;8.660;2022-08-03T12:35:07;6.88;;;1.55;;
13114;SDS011;6623;52.120;8.660;2022-08-03T12:37:34;2.70;;;1.40;;
13114;SDS011;6623;52.120;8.660;2022-08-03T12:40:00;4.70;;;1.50;;
13114;SDS011;6623;52.120;8.660;2022-08-03T12:42:32;3.63;;;1.58;;
13114;SDS011;6623;52.120;8.660;2022-08-03T12:44:58;2.35;;;1.50;;
13114;SDS011;6623;52.120;8.660;2022-08-03T12:47:24;1.95;;;1.35;;
13114;SDS011;6623;52.120;8.660;2022-08-03T12:49:51;4.30;;;1.70;;
13114;SDS011;6623;52.120;8.660;2022-08-03T12:52:18;3.35;;;1.80;;
13114;SDS011;6623;52.120;8.660;2022-08-03T12:54:54;3.38;;;1.77;;
13114;SDS011;6623;52.120;8.660;2022-08-03T12:57:20;2.25;;;1.85;;
13114;SDS011;6623;52.120;8.660;2022-08-03T12:59:49;2.08;;;1.38;;
13114;SDS011;6623;52.120;8.660;2022-08-03T13:04:45;3.10;;;1.42;;
13114;SDS011;6623;52.120;8.660;2022-08-03T13:07:15;9.63;;;1.40;;
13114;SDS011;6623;52.120;8.660;2022-08-03T13:09:42;3.97;;;1.60;;
13114;SDS011;6623;52.120;8.660;2022-08-03T13:12:12;2.28;;;1.30;;
13114;SDS011;6623;52.120;8.660;2022-08-03T13:14:38;6.80;;;1.63;;
13114;SDS011;6623;52.120;8.660;2022-08-03T13:17:05;3.75;;;1.58;;
13114;SDS011;6623;52.120;8.660;2022-08-03T13:19:35;2.97;;;1.58;;
13114;SDS011;6623;52.120;8.660;2022-08-03T13:24:36;2.65;;;1.52;;
13114;SDS011;6623;52.120;8.660;2022-08-03T13:27:02;3.13;;;1.42;;
13114;SDS011;6623;52.120;8.660;2022-08-03T13:29:30;3.90;;;1.73;;
13114;SDS011;6623;52.120;8.660;2022-08-03T13:31:56;4.88;;;1.50;;
13114;SDS011;6623;52.120;8.660;2022-08-03T13:34:28;2.80;;;1.48;;
13114;SDS011;6623;52.120;8.660;2022-08-03T13:36:54;3.13;;;1.70;;
13114;SDS011;6623;52.120;8.660;2022-08-03T13:39:20;3.90;;;1.40;;
13114;SDS011;6623;52.120;8.660;2022-08-03T13:41:47;6.05;;;1.55;;
13114;SDS011;6623;52.120;8.660;2022-08-03T13:44:13;4.80;;;1.70;;
13114;SDS011;6623;52.120;8.660;2022-08-03T13:46:39;5.80;;;1.55;;
13114;SDS011;6623;52.120;8.660;2022-08-03T13:49:05;5.13;;;1.63;;
13114;SDS011;6623;52.120;8.660;2022-08-03T13:51:32;6.07;;;1.77;;
13114;SDS011;6623;52.120;8.660;2022-08-03T13:53:58;7.10;;;1.65;;
13114;SDS011;6623;52.120;8.660;2022-08-03T13:56:24;1.98;;;1.33;;
13114;SDS011;6623;52.120;8.660;2022-08-03T13:58:50;3.13;;;1.50;;
13114;SDS011;6623;52.120;8.660;2022-08-03T14:01:16;5.63;;;1.70;;
13114;SDS011;6623;52.120;8.660;2022-08-03T14:03:42;2.38;;;1.40;;
13114;SDS011;6623;52.120;8.660;2022-08-03T14:06:08;5.60;;;1.48;;
13114;SDS011;6623;52.120;8.660;2022-08-03T14:08:34;1.92;;;1.30;;
13114;SDS011;6623;52.120;8.660;2022-08-03T14:11:00;4.70;;;1.73;;
13114;SDS011;6623;52.120;8.660;2022-08-03T14:13:26;4.35;;;1.42;;
13114;SDS011;6623;52.120;8.660;2022-08-03T14:15:55;2.65;;;1.50;;
13114;SDS011;6623;52.120;8.660;2022-08-03T14:18:30;3.38;;;1.40;;
13114;SDS011;6623;52.120;8.660;2022-08-03T14:20:56;3.33;;;1.63;;
13114;SDS011;6623;52.120;8.660;2022-08-03T14:23:26;4.10;;;1.48;;
13114;SDS011;6623;52.120;8.660;2022-08-03T14:25:52;3.00;;;1.50;;
13114;SDS011;6623;52.120;8.660;2022-08-03T14:28:18;3.75;;;1.77;;
13114;SDS011;6623;52.120;8.660;2022-08-03T14:30:47;3.35;;;1.42;;
13114;SDS011;6623;52.120;8.660;2022-08-03T14:33:13;6.57;;;1.88;;
13114;SDS011;6623;52.120;8.660;2022-08-03T14:35:46;3.55;;;1.63;;
13114;SDS011;6623;52.120;8.660;2022-08-03T14:38:12;4.35;;;1.50;;
13114;SDS011;6623;52.120;8.660;2022-08-03T14:40:45;2.97;;;1.80;;
13114;SDS011;6623;52.120;8.660;2022-08-03T14:43:12;6.78;;;1.60;;
13114;SDS011;6623;52.120;8.660;2022-08-03T14:45:38;2.00;;;1.40;;
13114;SDS011;6623;52.120;8.660;2022-08-03T14:48:04;8.00;;;1.52;;
13114;SDS011;6623;52.120;8.660;2022-08-03T14:50:30;8.20;;;1.40;;
13114;SDS011;6623;52.120;8.660;2022-08-03T14:52:56;3.03;;;1.40;;
13114;SDS011;6623;52.120;8.660;2022-08-03T14:55:23;3.75;;;1.90;;
13114;SDS011;6623;52.120;8.660;2022-08-03T14:57:51;4.00;;;1.77;;
13114;SDS011;6623;52.120;8.660;2022-08-03T15:00:17;4.85;;;1.65;;
13114;SDS011;6623;52.120;8.660;2022-08-03T15:02:43;2.80;;;1.58;;
13114;SDS011;6623;52.120;8.660;2022-08-03T15:05:09;7.25;;;1.42;;
13114;SDS011;6623;52.120;8.660;2022-08-03T15:07:36;1.65;;;1.30;;
13114;SDS011;6623;52.120;8.660;2022-08-03T15:10:03;4.22;;;1.60;;
13114;SDS011;6623;52.120;8.660;2022-08-03T15:12:32;3.00;;;1.25;;
13114;SDS011;6623;52.120;8.660;2022-08-03T15:14:58;2.83;;;1.45;;
13114;SDS011;6623;52.120;8.660;2022-08-03T15:17:24;2.90;;;1.52;;
13114;SDS011;6623;52.120;8.660;2022-08-03T15:19:50;4.20;;;1.40;;
13114;SDS011;6623;52.120;8.660;2022-08-03T15:22:15;3.60;;;1.45;;
13114;SDS011;6623;52.120;8.660;2022-08-03T15:24:43;5.72;;;1.63;;
13114;SDS011;6623;52.120;8.660;2022-08-03T15:27:09;2.78;;;1.67;;
13114;SDS011;6623;52.120;8.660;2022-08-03T15:29:36;7.38;;;2.83;;
13114;SDS011;6623;52.120;8.660;2022-08-03T15:32:02;10.15;;;4.07;;
13114;SDS011;6623;52.120;8.660;2022-08-03T15:34:28;4.55;;;1.80;;
13114;SDS011;6623;52.120;8.660;2022-08-03T15:36:54;8.27;;;1.75;;
13114;SDS011;6623;52.120;8.660;2022-08-03T15:39:20;4.28;;;1.70;;
13114;SDS011;6623;52.120;8.660;2022-08-03T15:41:46;3.15;;;1.55;;
13114;SDS011;6623;52.120;8.660;2022-08-03T15:44:12;3.78;;;1.52;;
13114;SDS011;6623;52.120;8.660;2022-08-03T15:46:38;9.75;;;1.70;;
13114;SDS011;6623;52.120;8.660;2022-08-03T15:49:04;5.43;;;1.67;;
13114;SDS011;6623;52.120;8.660;2022-08-03T15:51:33;7.70;;;1.63;;
13114;SDS011;6623;52.120;8.660;2022-08-03T15:54:02;5.60;;;1.88;;
13114;SDS011;6623;52.120;8.660;2022-08-03T15:56:31;6.43;;;1.83;;